Time;durP1;ratioP1;P1;durP2;ratioP2;P2;SDS_P1;SDS_P2;PMS_P1;PMS_P2;Temp;Humidity;BMP_temperature;BMP_pressure;BME280_temperature;BME280_humidity;BME280_pressure;Samples;Min_cycle;Max_cycle;Signal;HPM_P1;HPM_P2
2023/10/02 00:01:52;;;;;;;65.47;29.17;;;;;;;;;;5072352;28;20055;-63
2023/10/02 00:04:18;;;;;;;69.25;30.73;;;;;;;;;;5072677;28;20492;-64
2023/10/02 00:06:43;;;;;;;66.38;29.00;;;;;;;;;;5069582;28;20099;-64
2023/10/02 00:09:09;;;;;;;64.10;28.02;;;;;;;;;;5070893;28;20507;-63
2023/10/02 00:11:39;;;;;;;61.30;28.35;;;;;;;;;;5069146;28;20024;-64
2023/10/02 00:14:25;;;;;;;60.05;26.73;;;;;;;;;;5063631;28;20464;-63
2023/10/02 00:17:04;;;;;;;55.38;26.23;;;;;;;;;;5061429;28;20484;-64
2023/10/02 00:19:31;;;;;;;63.35;25.35;;;;;;;;;;5059607;28;20024;-64
2023/10/02 00:22:05;;;;;;;55.45;24.38;;;;;;;;;;5070235;28;20032;-64
2023/10/02 00:24:32;;;;;;;47.72;23.40;;;;;;;;;;5069421;28;20027;-64
2023/10/02 00:26:58;;;;;;;54.45;24.67;;;;;;;;;;5067235;28;20040;-65
2023/10/02 00:29:24;;;;;;;52.63;24.00;;;;;;;;;;5066067;28;20028;-63
2023/10/02 00:31:50;;;;;;;53.30;23.73;;;;;;;;;;5066918;28;20381;-63
2023/10/02 00:34:16;;;;;;;50.95;23.55;;;;;;;;;;5063002;28;20066;-63
2023/10/02 00:36:42;;;;;;;49.78;23.48;;;;;;;;;;5060701;28;20747;-64
2023/10/02 00:39:25;;;;;;;45.17;22.38;;;;;;;;;;5067017;28;20021;-63
2023/10/02 00:44:56;;;;;;;51.78;22.55;;;;;;;;;;5060401;28;20503;-64
2023/10/02 00:47:50;;;;;;;45.03;21.10;;;;;;;;;;5073047;28;20528;-63
2023/10/02 00:50:22;;;;;;;45.83;21.20;;;;;;;;;;5057817;28;20048;-63
2023/10/02 00:52:49;;;;;;;42.45;20.85;;;;;;;;;;5070051;28;20048;-63
2023/10/02 00:55:20;;;;;;;46.40;21.42;;;;;;;;;;5072128;28;20039;-61
2023/10/02 00:57:46;;;;;;;41.95;20.00;;;;;;;;;;5072260;28;20048;-61
2023/10/02 01:03:15;;;;;;;41.83;19.60;;;;;;;;;;5065522;28;20051;-62
2023/10/02 01:08:23;;;;;;;;;;;;;;;;;;5074104;28;20024;-63
2023/10/02 01:10:59;;;;;;;41.10;18.10;;;;;;;;;;5073480;28;20405;-63
2023/10/02 01:13:28;;;;;;;41.83;18.40;;;;;;;;;;5071963;28;20465;-63
2023/10/02 01:15:54;;;;;;;40.15;19.05;;;;;;;;;;5059358;28;20063;-61
2023/10/02 01:18:22;;;;;;;38.90;18.63;;;;;;;;;;5070276;28;20521;-61
2023/10/02 01:20:48;;;;;;;38.13;18.23;;;;;;;;;;5065505;28;20388;-63
2023/10/02 01:23:16;;;;;;;38.33;18.05;;;;;;;;;;5064145;28;20017;-63
2023/10/02 01:25:42;;;;;;;40.10;18.23;;;;;;;;;;5073891;28;20020;-65
2023/10/02 01:28:10;;;;;;;42.78;19.30;;;;;;;;;;5060523;28;20024;-63
2023/10/02 01:30:35;;;;;;;35.42;17.05;;;;;;;;;;5063968;28;20025;-63
2023/10/02 01:35:47;;;;;;;38.15;17.92;;;;;;;;;;5059782;28;20032;-62
2023/10/02 01:38:27;;;;;;;41.33;17.42;;;;;;;;;;5065405;28;20098;-62
2023/10/02 01:40:54;;;;;;;37.90;17.65;;;;;;;;;;5069851;28;20026;-63
2023/10/02 01:43:24;;;;;;;41.72;18.98;;;;;;;;;;5061722;28;20096;-64
2023/10/02 01:45:54;;;;;;;45.33;20.50;;;;;;;;;;5061809;28;20480;-64
2023/10/02 01:48:37;;;;;;;48.25;20.23;;;;;;;;;;5064045;28;20481;-63
2023/10/02 01:51:26;;;;;;;45.72;20.40;;;;;;;;;;5068502;28;20021;-63
2023/10/02 01:53:54;;;;;;;45.50;20.05;;;;;;;;;;5060108;28;20416;-64
2023/10/02 01:56:20;;;;;;;50.92;21.77;;;;;;;;;;5068607;28;20051;-63
2023/10/02 01:58:47;;;;;;;46.05;21.42;;;;;;;;;;5068868;28;20017;-63
2023/10/02 02:01:13;;;;;;;44.75;20.50;;;;;;;;;;5066526;28;20416;-64
2023/10/02 02:03:39;;;;;;;51.45;23.27;;;;;;;;;;5066389;28;20098;-64
2023/10/02 02:06:10;;;;;;;56.75;23.50;;;;;;;;;;5070277;28;20009;-64
2023/10/02 02:08:36;;;;;;;;;;;;;;;;;;5065689;28;20063;-63
2023/10/02 02:11:14;;;;;;;54.38;23.63;;;;;;;;;;5062782;28;19916;-64
2023/10/02 02:13:44;;;;;;;59.45;22.88;;;;;;;;;;5056394;28;20097;-63
2023/10/02 02:16:14;;;;;;;54.85;22.63;;;;;;;;;;5070421;28;20480;-65
2023/10/02 02:18:41;;;;;;;51.95;22.38;;;;;;;;;;5066930;28;20031;-63
2023/10/02 02:21:10;;;;;;;53.58;22.73;;;;;;;;;;5062579;28;20020;-62
2023/10/02 02:23:35;;;;;;;56.87;23.67;;;;;;;;;;5070166;28;20012;-62
2023/10/02 02:26:00;;;;;;;62.38;24.25;;;;;;;;;;5058549;28;20099;-63
2023/10/02 02:28:26;;;;;;;63.25;24.65;;;;;;;;;;5068011;28;20031;-63
2023/10/02 02:30:51;;;;;;;65.43;25.35;;;;;;;;;;5064850;28;20104;-63
2023/10/02 02:33:16;;;;;;;63.05;25.35;;;;;;;;;;5060854;28;20016;-64
2023/10/02 02:35:44;;;;;;;68.30;25.77;;;;;;;;;;5070859;28;20017;-63
2023/10/02 02:38:15;;;;;;;59.70;25.70;;;;;;;;;;5057323;28;20377;-63
2023/10/02 02:40:41;;;;;;;70.93;26.23;;;;;;;;;;5061574;28;20032;-64
2023/10/02 02:43:19;;;;;;;65.38;25.30;;;;;;;;;;5066364;28;20012;-64
2023/10/02 02:45:45;;;;;;;62.97;25.45;;;;;;;;;;5065921;28;20021;-64
2023/10/02 02:48:10;;;;;;;69.35;26.40;;;;;;;;;;5069822;28;20017;-64
2023/10/02 02:50:42;;;;;;;71.30;25.90;;;;;;;;;;5059917;28;20475;-64
2023/10/02 02:53:21;;;;;;;77.88;26.65;;;;;;;;;;5065761;28;20021;-64
2023/10/02 02:56:09;;;;;;;68.20;26.45;;;;;;;;;;5066229;28;20025;-63
2023/10/02 02:58:35;;;;;;;73.45;27.00;;;;;;;;;;5071537;28;20021;-68
2023/10/02 03:01:00;;;;;;;67.05;25.05;;;;;;;;;;5065758;28;20461;-68
2023/10/02 03:03:34;;;;;;;61.80;24.53;;;;;;;;;;5059189;28;20021;-68
2023/10/02 03:06:00;;;;;;;61.40;23.00;;;;;;;;;;5071424;28;20043;-68
2023/10/02 03:08:37;;;;;;;64.28;24.58;;;;;;;;;;5067421;28;20099;-68
2023/10/02 03:11:06;;;;;;;58.08;22.33;;;;;;;;;;5069022;28;20116;-68
2023/10/02 03:13:34;;;;;;;61.95;23.15;;;;;;;;;;5072295;28;20035;-68
2023/10/02 03:16:08;;;;;;;60.90;23.02;;;;;;;;;;5060523;28;20115;-68
2023/10/02 03:18:36;;;;;;;56.38;23.13;;;;;;;;;;5062367;28;20029;-69
2023/10/02 03:23:38;;;;;;;51.40;20.52;;;;;;;;;;5057627;28;20028;-67
2023/10/02 03:26:37;;;;;;;48.55;20.35;;;;;;;;;;5061925;28;20472;-68
2023/10/02 03:29:16;;;;;;;45.63;20.88;;;;;;;;;;5061706;28;20445;-68
2023/10/02 03:31:49;;;;;;;43.88;19.38;;;;;;;;;;5055064;28;20164;-68
2023/10/02 03:34:30;;;;;;;44.17;19.73;;;;;;;;;;5068586;28;20396;-68
2023/10/02 03:36:59;;;;;;;43.88;18.50;;;;;;;;;;5063712;28;20532;-68
2023/10/02 03:42:12;;;;;;;40.65;17.00;;;;;;;;;;5067186;28;20458;-68
2023/10/02 03:44:39;;;;;;;36.85;17.00;;;;;;;;;;5061899;28;20012;-68
2023/10/02 03:47:04;;;;;;;34.25;16.48;;;;;;;;;;5061517;28;20039;-68
2023/10/02 03:49:32;;;;;;;41.88;18.55;;;;;;;;;;5068103;28;20043;-68
2023/10/02 03:51:57;;;;;;;36.08;17.67;;;;;;;;;;5062925;28;20468;-68
2023/10/02 03:54:23;;;;;;;37.08;17.58;;;;;;;;;;5070596;28;20013;-67
2023/10/02 03:56:50;;;;;;;36.38;17.13;;;;;;;;;;5072570;28;20491;-67
2023/10/02 03:59:21;;;;;;;37.03;18.20;;;;;;;;;;5071655;28;20020;-68
2023/10/02 04:01:47;;;;;;;36.97;18.00;;;;;;;;;;5070970;28;20021;-69
2023/10/02 04:06:43;;;;;;;37.03;17.20;;;;;;;;;;5057132;28;20031;-63
2023/10/02 04:09:23;;;;;;;41.42;17.80;;;;;;;;;;5069412;28;20024;-64
2023/10/02 04:11:55;;;;;;;40.60;17.70;;;;;;;;;;5068432;28;20036;-63
2023/10/02 04:14:31;;;;;;;36.97;17.95;;;;;;;;;;5071297;28;20025;-63
2023/10/02 04:17:20;;;;;;;33.10;16.77;;;;;;;;;;5065590;28;20048;-63
2023/10/02 04:19:49;;;;;;;35.22;16.75;;;;;;;;;;5069761;28;20480;-63
2023/10/02 04:22:25;;;;;;;36.08;17.52;;;;;;;;;;5061321;28;20024;-63
2023/10/02 04:24:51;;;;;;;38.30;17.52;;;;;;;;;;5069469;28;20488;-63
2023/10/02 04:27:22;;;;;;;36.60;17.30;;;;;;;;;;5068114;28;20538;-63
2023/10/02 04:30:19;;;;;;;34.83;16.70;;;;;;;;;;5071852;28;20024;-63
2023/10/02 04:32:32;;;;;;;35.83;17.45;;;;;;;;;;5071757;28;20032;-63
2023/10/02 04:34:58;;;;;;;36.35;17.02;;;;;;;;;;5071502;28;20025;-63
2023/10/02 04:37:23;;;;;;;37.50;17.17;;;;;;;;;;5074884;28;20032;-62
2023/10/02 04:39:53;;;;;;;43.70;16.73;;;;;;;;;;5070829;28;20020;-63
2023/10/02 04:42:21;;;;;;;42.35;17.25;;;;;;;;;;5074474;28;20027;-63
2023/10/02 04:44:48;;;;;;;43.90;18.33;;;;;;;;;;5076438;28;20139;-64
2023/10/02 04:47:17;;;;;;;40.20;17.27;;;;;;;;;;5076913;28;20025;-64
2023/10/02 04:50:33;;;;;;;36.65;16.23;;;;;;;;;;5077342;28;20031;-64
2023/10/02 04:52:53;;;;;;;34.17;16.27;;;;;;;;;;5067638;28;20028;-63
2023/10/02 04:55:15;;;;;;;35.15;15.40;;;;;;;;;;5077734;28;20050;-63
2023/10/02 04:57:42;;;;;;;36.45;16.25;;;;;;;;;;5077890;28;20027;-63
2023/10/02 05:00:19;;;;;;;32.88;15.80;;;;;;;;;;5078515;28;20431;-63
2023/10/02 05:02:47;;;;;;;34.58;15.82;;;;;;;;;;5072720;28;20363;-64
2023/10/02 05:05:14;;;;;;;36.90;15.43;;;;;;;;;;5066590;28;20058;-63
2023/10/02 05:07:41;;;;;;;33.25;15.23;;;;;;;;;;5067327;28;20025;-63
2023/10/02 05:10:07;;;;;;;34.92;16.45;;;;;;;;;;5062321;28;20503;-63
2023/10/02 05:12:35;;;;;;;37.38;16.23;;;;;;;;;;5078177;28;20017;-64
2023/10/02 05:15:07;;;;;;;33.13;15.70;;;;;;;;;;5076703;28;20024;-63
2023/10/02 05:17:44;;;;;;;35.75;16.25;;;;;;;;;;5078577;28;20038;-68
2023/10/02 05:20:14;;;;;;;37.90;15.35;;;;;;;;;;5077370;28;20023;-68
2023/10/02 05:22:41;;;;;;;35.33;14.77;;;;;;;;;;5078613;28;20468;-68
2023/10/02 05:25:07;;;;;;;34.63;14.55;;;;;;;;;;5078299;28;20022;-68
2023/10/02 05:27:36;;;;;;;36.20;16.15;;;;;;;;;;5076568;28;20476;-68
2023/10/02 05:30:14;;;;;;;34.58;16.00;;;;;;;;;;5078240;28;20519;-68
2023/10/02 05:32:40;;;;;;;36.15;15.10;;;;;;;;;;5065637;28;20477;-68
2023/10/02 05:37:40;;;;;;;34.65;15.35;;;;;;;;;;5062596;28;20377;-68
2023/10/02 05:45:47;;;;;;;34.90;16.10;;;;;;;;;;5077661;28;20020;-68
2023/10/02 05:50:52;;;;;;;36.63;16.08;;;;;;;;;;5071771;28;20124;-68
2023/10/02 05:53:19;;;;;;;41.33;16.05;;;;;;;;;;5062298;28;20468;-68
2023/10/02 05:55:57;;;;;;;33.03;14.73;;;;;;;;;;5074319;28;20020;-68
2023/10/02 05:58:31;;;;;;;40.83;15.13;;;;;;;;;;5074891;28;20020;-68
2023/10/02 06:00:57;;;;;;;36.25;15.05;;;;;;;;;;5071216;28;20496;-68
2023/10/02 06:03:22;;;;;;;35.45;14.40;;;;;;;;;;5071901;28;20380;-68
2023/10/02 06:06:10;;;;;;;33.10;15.45;;;;;;;;;;5068915;28;20036;-68
2023/10/02 06:08:34;;;;;;;32.78;15.13;;;;;;;;;;5069952;28;20047;-67
2023/10/02 06:11:09;;;;;;;32.20;15.35;;;;;;;;;;5073500;28;20028;-67
2023/10/02 06:13:38;;;;;;;30.27;14.80;;;;;;;;;;5074057;28;20067;-68
2023/10/02 06:16:07;;;;;;;31.17;14.77;;;;;;;;;;5073553;28;20384;-68
2023/10/02 06:18:32;;;;;;;31.48;14.00;;;;;;;;;;5062946;28;20024;-67
2023/10/02 06:21:00;;;;;;;31.35;14.02;;;;;;;;;;5072038;28;20020;-68
2023/10/02 06:23:25;;;;;;;30.77;14.38;;;;;;;;;;5070751;28;20021;-67
2023/10/02 06:25:52;;;;;;;31.35;13.70;;;;;;;;;;5073966;28;20025;-67
2023/10/02 06:28:25;;;;;;;29.33;13.75;;;;;;;;;;5072282;28;20024;-63
2023/10/02 06:30:51;;;;;;;28.40;13.15;;;;;;;;;;5070803;28;20054;-62
2023/10/02 06:33:21;;;;;;;30.23;13.52;;;;;;;;;;5074195;28;20480;-62
2023/10/02 06:35:56;;;;;;;23.77;11.32;;;;;;;;;;5069981;28;20456;-62
2023/10/02 06:38:21;;;;;;;27.17;11.88;;;;;;;;;;5073945;28;20020;-62
2023/10/02 06:40:56;;;;;;;23.85;11.00;;;;;;;;;;5064553;28;20363;-63
2023/10/02 06:43:28;;;;;;;23.08;10.68;;;;;;;;;;5055362;28;20029;-62
2023/10/02 06:46:06;;;;;;;23.60;10.57;;;;;;;;;;5054146;28;20016;-62
2023/10/02 06:48:34;;;;;;;23.05;10.10;;;;;;;;;;5071270;28;20028;-61
2023/10/02 06:50:59;;;;;;;24.67;10.82;;;;;;;;;;5068632;28;20017;-61
2023/10/02 06:53:25;;;;;;;22.98;10.70;;;;;;;;;;5073307;28;20495;-61
2023/10/02 06:55:58;;;;;;;24.17;11.35;;;;;;;;;;5060344;28;20061;-60
2023/10/02 06:58:24;;;;;;;24.08;10.57;;;;;;;;;;5059762;28;20024;-63
2023/10/02 07:01:01;;;;;;;23.92;10.88;;;;;;;;;;5070794;28;20021;-58
2023/10/02 07:03:26;;;;;;;22.08;9.82;;;;;;;;;;5069694;28;20161;-58
2023/10/02 07:05:51;;;;;;;23.70;10.13;;;;;;;;;;5072995;28;20488;-58
2023/10/02 07:08:26;;;;;;;23.50;10.13;;;;;;;;;;5056270;28;20370;-57
2023/10/02 07:10:52;;;;;;;21.17;9.88;;;;;;;;;;5067166;28;20384;-57
2023/10/02 07:13:20;;;;;;;22.60;9.45;;;;;;;;;;5073238;28;20020;-57
2023/10/02 07:15:46;;;;;;;22.40;9.75;;;;;;;;;;5069860;28;20013;-57
2023/10/02 07:18:12;;;;;;;20.58;9.40;;;;;;;;;;5055300;28;20029;-57
2023/10/02 07:20:42;;;;;;;19.17;9.52;;;;;;;;;;5054266;28;20489;-58
2023/10/02 07:23:15;;;;;;;20.35;9.25;;;;;;;;;;5054140;28;20031;-58
2023/10/02 07:25:50;;;;;;;21.08;9.55;;;;;;;;;;5054184;28;20056;-59
2023/10/02 07:28:15;;;;;;;20.63;9.48;;;;;;;;;;5069639;28;20040;-57
2023/10/02 07:30:40;;;;;;;18.70;9.00;;;;;;;;;;5072993;28;20051;-58
2023/10/02 07:33:06;;;;;;;19.40;9.40;;;;;;;;;;5073184;28;20024;-57
2023/10/02 07:35:33;;;;;;;21.33;10.23;;;;;;;;;;5069393;28;20372;-57
2023/10/02 07:37:58;;;;;;;23.90;10.15;;;;;;;;;;5054161;28;20476;-62
2023/10/02 07:40:26;;;;;;;20.77;9.60;;;;;;;;;;5061696;28;20021;-57
2023/10/02 07:42:52;;;;;;;19.67;9.70;;;;;;;;;;5066877;28;20069;-57
2023/10/02 07:45:26;;;;;;;20.95;8.82;;;;;;;;;;5072702;28;20021;-57
2023/10/02 07:48:11;;;;;;;24.60;9.95;;;;;;;;;;5072938;28;20534;-59
2023/10/02 07:50:41;;;;;;;19.65;9.05;;;;;;;;;;5072563;28;20495;-59
2023/10/02 07:53:07;;;;;;;17.83;8.57;;;;;;;;;;5072621;28;20024;-58
2023/10/02 07:55:33;;;;;;;21.42;9.75;;;;;;;;;;5065753;28;20085;-58
2023/10/02 07:58:00;;;;;;;22.52;9.40;;;;;;;;;;5059200;28;20028;-58
2023/10/02 08:00:38;;;;;;;21.40;9.32;;;;;;;;;;5055216;28;20017;-59
2023/10/02 08:03:04;;;;;;;20.95;9.52;;;;;;;;;;5071074;28;20020;-59
2023/10/02 08:05:36;;;;;;;19.63;9.70;;;;;;;;;;5071921;28;20135;-59
2023/10/02 08:08:10;;;;;;;21.25;10.10;;;;;;;;;;5072410;28;20574;-61
2023/10/02 08:10:52;;;;;;;21.98;9.95;;;;;;;;;;5072727;28;20031;-60
2023/10/02 08:13:32;;;;;;;19.92;9.50;;;;;;;;;;5062872;28;20063;-60
2023/10/02 08:15:58;;;;;;;20.15;9.63;;;;;;;;;;5070044;28;20385;-58
2023/10/02 08:18:24;;;;;;;19.35;9.60;;;;;;;;;;5071722;28;20017;-60
2023/10/02 08:20:50;;;;;;;19.58;8.90;;;;;;;;;;5063399;28;20107;-59
2023/10/02 08:23:22;;;;;;;22.30;9.60;;;;;;;;;;5072228;28;20142;-59
2023/10/02 08:26:02;;;;;;;24.60;9.52;;;;;;;;;;5071809;28;20009;-59
2023/10/02 08:28:33;;;;;;;20.30;9.68;;;;;;;;;;5072159;28;20090;-59
2023/10/02 08:31:02;;;;;;;;;;;;;;;;;;5072584;28;20024;-59
2023/10/02 08:33:30;;;;;;;21.98;9.07;;;;;;;;;;5071397;28;19905;-60
2023/10/02 08:35:55;;;;;;;18.88;8.45;;;;;;;;;;5071915;28;20575;-60
2023/10/02 08:38:24;;;;;;;20.92;7.93;;;;;;;;;;5071946;28;20099;-59
2023/10/02 08:40:59;;;;;;;21.73;8.90;;;;;;;;;;5066408;28;20448;-60
2023/10/02 08:43:24;;;;;;;22.88;10.15;;;;;;;;;;5063393;28;20368;-60
2023/10/02 08:45:50;;;;;;;19.27;9.02;;;;;;;;;;5059370;28;20017;-60
2023/10/02 08:48:19;;;;;;;25.27;9.65;;;;;;;;;;5057557;28;20029;-61
2023/10/02 08:50:47;;;;;;;24.58;9.90;;;;;;;;;;5061103;28;20555;-61
2023/10/02 08:53:19;;;;;;;20.75;9.20;;;;;;;;;;5061345;28;20469;-60
2023/10/02 08:58:18;;;;;;;20.13;8.52;;;;;;;;;;5059040;28;20456;-62
2023/10/02 09:01:17;;;;;;;21.35;8.88;;;;;;;;;;5067659;28;20484;-62
2023/10/02 09:03:43;;;;;;;19.90;8.45;;;;;;;;;;5070258;28;20111;-62
2023/10/02 09:06:31;;;;;;;20.38;9.30;;;;;;;;;;5070442;28;20078;-59
2023/10/02 09:09:14;;;;;;;21.10;8.80;;;;;;;;;;5067964;28;20016;-60
2023/10/02 09:11:41;;;;;;;22.15;8.45;;;;;;;;;;5068136;28;20031;-62
2023/10/02 09:14:16;;;;;;;19.50;8.45;;;;;;;;;;5070761;28;20472;-60
2023/10/02 09:16:45;;;;;;;20.98;8.15;;;;;;;;;;5067757;28;20028;-62
2023/10/02 09:19:28;;;;;;;19.27;8.13;;;;;;;;;;5070697;28;20027;-62
2023/10/02 09:22:06;;;;;;;23.00;8.35;;;;;;;;;;5069518;28;20017;-61
2023/10/02 09:24:31;;;;;;;19.90;8.80;;;;;;;;;;5068488;28;20461;-59
2023/10/02 09:27:20;;;;;;;20.67;9.02;;;;;;;;;;5064038;28;20032;-62
2023/10/02 09:29:44;;;;;;;22.08;9.02;;;;;;;;;;5074107;28;20365;-64
2023/10/02 09:32:21;;;;;;;22.60;9.27;;;;;;;;;;5074801;28;20024;-61
2023/10/02 09:35:08;;;;;;;23.98;9.68;;;;;;;;;;5064577;28;20017;-62
2023/10/02 09:37:35;;;;;;;22.30;9.60;;;;;;;;;;5068598;28;20021;-63
2023/10/02 09:40:14;;;;;;;23.58;9.63;;;;;;;;;;5066886;28;20013;-60
2023/10/02 09:42:45;;;;;;;19.98;8.75;;;;;;;;;;5069499;28;20379;-63
2023/10/02 09:45:14;;;;;;;23.27;8.48;;;;;;;;;;5066009;28;20108;-61
2023/10/02 09:47:42;;;;;;;20.40;8.57;;;;;;;;;;5070310;28;20480;-64
2023/10/02 09:50:23;;;;;;;19.77;8.93;;;;;;;;;;5066422;28;20058;-62
2023/10/02 09:53:08;;;;;;;20.23;8.43;;;;;;;;;;5070626;28;20504;-59
2023/10/02 09:55:37;;;;;;;18.58;8.48;;;;;;;;;;5065851;28;20427;-63
2023/10/02 09:58:03;;;;;;;21.38;9.07;;;;;;;;;;5065746;28;20027;-62
2023/10/02 10:00:36;;;;;;;20.00;7.68;;;;;;;;;;5069196;28;20019;-66
2023/10/02 10:03:23;;;;;;;21.80;9.13;;;;;;;;;;5067640;28;20081;-66
2023/10/02 10:06:07;;;;;;;20.92;8.80;;;;;;;;;;5066752;28;20032;-63
2023/10/02 10:09:18;;;;;;;20.50;8.23;;;;;;;;;;5071208;28;20103;-65
2023/10/02 10:11:36;;;;;;;19.92;8.50;;;;;;;;;;5073475;28;20024;-65
2023/10/02 10:14:35;;;;;;;23.08;9.10;;;;;;;;;;5069792;28;20036;-65
2023/10/02 10:17:01;;;;;;;25.58;9.63;;;;;;;;;;5066774;28;20481;-65
2023/10/02 10:19:26;;;;;;;22.48;8.85;;;;;;;;;;5068891;28;20017;-66
2023/10/02 10:22:01;;;;;;;20.63;8.88;;;;;;;;;;5067990;28;20059;-66
2023/10/02 10:24:33;;;;;;;21.30;9.00;;;;;;;;;;5067983;28;20032;-64
2023/10/02 10:26:58;;;;;;;22.23;9.05;;;;;;;;;;5067494;28;20029;-65
2023/10/02 10:29:37;;;;;;;18.40;8.40;;;;;;;;;;5069349;28;20027;-65
2023/10/02 10:32:24;;;;;;;20.73;8.43;;;;;;;;;;5066807;28;20472;-64
2023/10/02 10:35:15;;;;;;;24.88;9.27;;;;;;;;;;5060949;28;20087;-66
2023/10/02 10:37:41;;;;;;;21.08;8.13;;;;;;;;;;5062653;28;20032;-66
2023/10/02 10:40:41;;;;;;;21.17;9.10;;;;;;;;;;5068084;28;20028;-66
2023/10/02 10:42:59;;;;;;;20.00;8.48;;;;;;;;;;5064112;28;20043;-66
2023/10/02 10:45:24;;;;;;;19.48;8.48;;;;;;;;;;5068347;28;20460;-67
2023/10/02 10:47:50;;;;;;;19.85;8.82;;;;;;;;;;5065124;28;20029;-66
2023/10/02 10:50:29;;;;;;;19.65;8.88;;;;;;;;;;5068032;28;20449;-67
2023/10/02 10:53:25;;;;;;;18.77;8.38;;;;;;;;;;5069092;28;20024;-64
2023/10/02 10:55:47;;;;;;;;;;;;;;;;;;5065633;28;20028;-66
2023/10/02 10:58:12;;;;;;;22.13;8.57;;;;;;;;;;5066657;28;19935;-67
2023/10/02 11:00:40;;;;;;;24.10;8.85;;;;;;;;;;5066278;28;20020;-67
2023/10/02 11:03:08;;;;;;;21.35;8.65;;;;;;;;;;5067575;28;21274;-67
2023/10/02 11:05:37;;;;;;;19.00;8.95;;;;;;;;;;5064763;28;20037;-68
2023/10/02 11:08:25;;;;;;;18.80;8.32;;;;;;;;;;5065479;28;20032;-67
2023/10/02 11:11:11;;;;;;;18.33;7.88;;;;;;;;;;5065923;28;20029;-63
2023/10/02 11:13:51;;;;;;;22.52;9.25;;;;;;;;;;5064254;28;20031;-64
2023/10/02 11:16:35;;;;;;;19.37;8.40;;;;;;;;;;5069101;28;20023;-63
2023/10/02 11:22:19;;;;;;;18.75;8.68;;;;;;;;;;5065632;28;20483;-63
2023/10/02 11:24:46;;;;;;;19.13;8.23;;;;;;;;;;5070692;28;20066;-63
2023/10/02 11:27:14;;;;;;;20.13;8.60;;;;;;;;;;5068305;28;20055;-63
2023/10/02 11:29:43;;;;;;;17.98;8.07;;;;;;;;;;5071938;28;20438;-61
2023/10/02 11:35:04;;;;;;;18.58;8.45;;;;;;;;;;5027413;28;20401;-60
2023/10/02 11:37:31;;;;;;;18.40;7.88;;;;;;;;;;5023660;28;20025;-64
2023/10/02 11:39:57;;;;;;;21.65;8.43;;;;;;;;;;5018716;28;20026;-65
2023/10/02 11:42:23;;;;;;;19.65;8.57;;;;;;;;;;5019227;28;20052;-62
2023/10/02 11:44:48;;;;;;;21.50;8.90;;;;;;;;;;5021004;28;20045;-64
2023/10/02 11:47:14;;;;;;;18.10;8.40;;;;;;;;;;5024919;28;20026;-60
2023/10/02 11:49:40;;;;;;;19.27;8.52;;;;;;;;;;5029022;28;20033;-62
2023/10/02 11:52:06;;;;;;;21.17;8.68;;;;;;;;;;5016295;28;20478;-65
2023/10/02 11:54:39;;;;;;;19.33;8.02;;;;;;;;;;5019648;28;20109;-64
2023/10/02 11:57:08;;;;;;;18.75;8.13;;;;;;;;;;5020420;28;20385;-63
2023/10/02 11:59:34;;;;;;;20.88;8.27;;;;;;;;;;5014528;28;20052;-64
2023/10/02 12:02:00;;;;;;;23.77;8.85;;;;;;;;;;5011691;28;20474;-64
2023/10/02 12:04:26;;;;;;;22.92;8.55;;;;;;;;;;5012206;28;20113;-64
2023/10/02 12:06:54;;;;;;;18.23;8.18;;;;;;;;;;4995292;28;20460;-63
2023/10/02 12:09:19;;;;;;;18.33;8.55;;;;;;;;;;5010953;28;20059;-63
2023/10/02 12:11:44;;;;;;;20.73;8.88;;;;;;;;;;5051195;28;20656;-64
2023/10/02 12:14:10;;;;;;;18.40;7.70;;;;;;;;;;5071978;28;20024;-63
2023/10/02 12:16:35;;;;;;;18.48;8.25;;;;;;;;;;5071970;28;20034;-63
2023/10/02 12:19:00;;;;;;;18.58;7.78;;;;;;;;;;5065164;28;20017;-64
2023/10/02 12:21:25;;;;;;;16.33;7.78;;;;;;;;;;5068613;28;20017;-64
2023/10/02 12:23:51;;;;;;;17.98;7.35;;;;;;;;;;5069313;28;20020;-64
2023/10/02 12:26:17;;;;;;;20.80;8.60;;;;;;;;;;5071737;28;20020;-64
2023/10/02 12:28:43;;;;;;;19.40;8.85;;;;;;;;;;5070542;28;20411;-65
2023/10/02 12:31:10;;;;;;;20.42;8.77;;;;;;;;;;5066115;28;20430;-64
2023/10/02 12:33:35;;;;;;;22.05;8.75;;;;;;;;;;5072096;28;20027;-62
2023/10/02 12:36:01;;;;;;;19.45;7.80;;;;;;;;;;5060288;28;20012;-63
2023/10/02 12:38:26;;;;;;;19.63;8.23;;;;;;;;;;5059001;28;20020;-62
2023/10/02 12:40:54;;;;;;;21.00;8.90;;;;;;;;;;5053030;28;20106;-64
2023/10/02 12:43:19;;;;;;;19.52;9.00;;;;;;;;;;5059233;28;20009;-64
2023/10/02 12:45:44;;;;;;;19.75;8.50;;;;;;;;;;5053370;28;20017;-64
2023/10/02 12:48:12;;;;;;;17.27;8.00;;;;;;;;;;5061211;28;20021;-64
2023/10/02 12:50:40;;;;;;;18.48;8.00;;;;;;;;;;5059867;28;20040;-63
2023/10/02 12:53:06;;;;;;;19.23;8.75;;;;;;;;;;5052862;28;20032;-64
2023/10/02 12:55:34;;;;;;;20.90;8.77;;;;;;;;;;5070647;28;20028;-64
2023/10/02 12:57:59;;;;;;;19.33;8.70;;;;;;;;;;5071716;28;20024;-63
2023/10/02 13:00:27;;;;;;;19.90;9.10;;;;;;;;;;5071326;28;20099;-65
2023/10/02 13:02:52;;;;;;;23.58;9.30;;;;;;;;;;5068453;28;20100;-65
2023/10/02 13:05:19;;;;;;;18.88;7.97;;;;;;;;;;5075119;28;20511;-63
2023/10/02 13:07:45;;;;;;;21.25;7.95;;;;;;;;;;5099986;28;20472;-64
2023/10/02 13:10:10;;;;;;;19.73;8.93;;;;;;;;;;5096958;28;20154;-66
2023/10/02 13:12:36;;;;;;;20.90;8.40;;;;;;;;;;5105411;28;20081;-61
2023/10/02 13:15:01;;;;;;;20.70;8.98;;;;;;;;;;5116658;28;20425;-63
2023/10/02 13:17:28;;;;;;;19.65;9.57;;;;;;;;;;5116823;28;20020;-64
2023/10/02 13:19:55;;;;;;;19.95;8.90;;;;;;;;;;5116567;28;20024;-65
2023/10/02 13:22:20;;;;;;;20.60;8.90;;;;;;;;;;5116676;28;20474;-64
2023/10/02 13:24:46;;;;;;;17.58;7.82;;;;;;;;;;5115688;28;20011;-65
2023/10/02 13:27:12;;;;;;;20.80;8.68;;;;;;;;;;5116160;28;20097;-65
2023/10/02 13:29:37;;;;;;;22.45;9.05;;;;;;;;;;5111913;28;20542;-68
2023/10/02 13:32:05;;;;;;;20.48;8.57;;;;;;;;;;5116744;28;20043;-68
2023/10/02 13:34:31;;;;;;;19.92;8.10;;;;;;;;;;5112034;28;20051;-68
2023/10/02 13:36:57;;;;;;;19.48;8.55;;;;;;;;;;5115954;28;20023;-68
2023/10/02 13:39:22;;;;;;;18.88;7.90;;;;;;;;;;5116393;28;20012;-66
2023/10/02 13:41:48;;;;;;;20.98;8.68;;;;;;;;;;5115782;28;20343;-68
2023/10/02 13:44:14;;;;;;;17.48;8.43;;;;;;;;;;5115740;28;20360;-67
2023/10/02 13:46:39;;;;;;;18.73;8.10;;;;;;;;;;5116170;28;20011;-67
2023/10/02 13:49:05;;;;;;;21.15;8.85;;;;;;;;;;5116395;28;20027;-68
2023/10/02 13:51:30;;;;;;;19.52;8.27;;;;;;;;;;5115897;28;20122;-68
2023/10/02 13:53:56;;;;;;;20.75;7.95;;;;;;;;;;5118247;27;20363;-68
2023/10/02 13:56:25;;;;;;;23.33;8.77;;;;;;;;;;5114883;28;20047;-68
2023/10/02 13:58:51;;;;;;;21.77;8.70;;;;;;;;;;5115058;28;20395;-68
2023/10/02 14:01:25;;;;;;;20.60;8.77;;;;;;;;;;5113295;28;20022;-68
2023/10/02 14:03:54;;;;;;;20.02;8.63;;;;;;;;;;5114602;28;20043;-67
2023/10/02 14:06:22;;;;;;;19.65;8.73;;;;;;;;;;5114909;28;20016;-67
2023/10/02 14:08:49;;;;;;;20.77;8.63;;;;;;;;;;5115218;28;20504;-67
2023/10/02 14:11:16;;;;;;;20.95;8.43;;;;;;;;;;5118991;27;20065;-67
2023/10/02 14:13:41;;;;;;;20.13;9.43;;;;;;;;;;5114191;28;20028;-66
2023/10/02 14:16:07;;;;;;;21.63;8.27;;;;;;;;;;5114460;28;20521;-67
2023/10/02 14:18:34;;;;;;;24.05;8.98;;;;;;;;;;5113516;27;20020;-67
2023/10/02 14:21:00;;;;;;;19.92;8.68;;;;;;;;;;5111884;27;20012;-68
2023/10/02 14:23:28;;;;;;;21.52;9.18;;;;;;;;;;5116050;27;20363;-66
2023/10/02 14:25:56;;;;;;;21.45;9.07;;;;;;;;;;5119343;27;20459;-66
2023/10/02 14:28:23;;;;;;;24.13;8.80;;;;;;;;;;5114803;28;20114;-66
2023/10/02 14:30:49;;;;;;;21.48;9.00;;;;;;;;;;5114794;28;20540;-67
2023/10/02 14:33:14;;;;;;;21.88;8.77;;;;;;;;;;5115435;28;20150;-68
2023/10/02 14:35:40;;;;;;;19.42;8.73;;;;;;;;;;5113998;28;20051;-67
2023/10/02 14:38:05;;;;;;;20.77;9.00;;;;;;;;;;5114346;28;20051;-67
2023/10/02 14:40:30;;;;;;;22.95;9.02;;;;;;;;;;5114557;28;20023;-65
2023/10/02 14:42:57;;;;;;;19.40;8.75;;;;;;;;;;5118819;27;20031;-64
2023/10/02 14:45:26;;;;;;;22.00;9.05;;;;;;;;;;5115117;28;20069;-68
2023/10/02 14:47:53;;;;;;;23.75;9.35;;;;;;;;;;5114932;28;20472;-67
2023/10/02 14:50:19;;;;;;;22.95;9.25;;;;;;;;;;5114929;28;20494;-67
2023/10/02 14:52:44;;;;;;;21.23;9.35;;;;;;;;;;5114765;28;20035;-68
2023/10/02 14:55:16;;;;;;;21.95;9.25;;;;;;;;;;5114486;28;20007;-67
2023/10/02 14:57:43;;;;;;;21.45;9.30;;;;;;;;;;5114698;28;20077;-67
2023/10/02 15:00:09;;;;;;;24.33;9.02;;;;;;;;;;5114445;28;20421;-68
2023/10/02 15:02:35;;;;;;;20.73;8.75;;;;;;;;;;5096039;28;20387;-67
2023/10/02 15:05:00;;;;;;;25.25;9.35;;;;;;;;;;5113721;28;20043;-68
2023/10/02 15:07:29;;;;;;;23.15;8.60;;;;;;;;;;5095571;28;20038;-67
2023/10/02 15:09:55;;;;;;;19.05;8.85;;;;;;;;;;5114426;28;20483;-68
2023/10/02 15:12:20;;;;;;;21.30;9.80;;;;;;;;;;5114347;28;20055;-68
2023/10/02 15:14:45;;;;;;;21.40;9.75;;;;;;;;;;5114500;28;20475;-68
2023/10/02 15:17:11;;;;;;;20.85;9.45;;;;;;;;;;5113782;28;20061;-67
2023/10/02 15:19:37;;;;;;;27.65;9.65;;;;;;;;;;5114234;28;20043;-66
2023/10/02 15:22:02;;;;;;;21.05;8.73;;;;;;;;;;5114304;28;20372;-69